Detalii statie AGRONICOLESCU [00001CFA]

Toti senzorii

Date Temperatura solului [C]Precipitatii [mm]Voltaj baterie [mV]Leaf Wetness [Min]HC Air temperature [C]HC Relative humidity [%]Punctul de roua [C]
medieminmaxsumaultimatimpmedieminmaxmediemediemin
2019-08-15 20:00:00 0 7254 22.88 21.79 23.78 51.16 12 11.9
2019-08-15 21:00:00 0 7158 20.83 20.18 21.62 56.7 11.7 11.6
2019-08-15 22:00:00 0 7010 19.53 19.05 19.97 60.4 11.5 11.3
2019-08-15 23:00:00 0 6992 18.78 18.53 19.1 63.01 11.4 11.3
2019-08-16 00:00:00 0 6992 18.37 18.26 18.53 63.76 11.2 11
2019-08-16 01:00:00 0 7010 18.33 18.21 18.42 64.32 11.3 11.2
2019-08-16 02:00:00 0 7020 18.31 18.21 18.43 64.43 11.3 11.2
2019-08-16 03:00:00 0 7010 18.25 18.18 18.35 63.5 11 10.9
2019-08-16 04:00:00 0 7010 18.45 18.28 18.56 61.51 10.7 10.6
2019-08-16 05:00:00 0 7000 18.44 18.16 18.58 61.04 10.6 10.5
2019-08-16 06:00:00 0 7010 18.14 18.02 18.26 62.8 10.8 10.6
2019-08-16 07:00:00 0 7000 18.11 17.94 18.18 61.02 10.3 10
2019-08-16 08:00:00 0 7088 18.5 18.18 18.77 59.66 10.3 10.2
2019-08-16 09:00:00 0 7128 19.28 19.03 19.52 55.8 10 9.9
2019-08-16 10:00:00 0 7226 19.96 19.39 20.59 52.74 9.8 9.4
2019-08-16 11:00:00 0 7284 20.38 20.13 20.67 49.97 9.3 9.2
2019-08-16 12:00:00 0 7342 20.56 20.19 21.17 48.67 9.2 8.7
2019-08-16 13:00:00 0 7392 21.57 20.71 23.2 45.36 9 8.7
2019-08-16 14:00:00 0 7392 23.54 22.36 24.71 39.69 8.8 8.3
2019-08-16 15:00:00 0 7392 24.9 24.25 25.62 37.85 9.3 8.7
2019-08-16 16:00:00 0 7392 25.93 25.36 26.74 37.4 10 9.2
2019-08-16 17:00:00 0 7382 26.38 25.97 27.39 36.85 10.1 9.8
2019-08-16 18:00:00 0 7382 26.83 26.09 27.28 34.69 9.7 9.5
2019-08-16 19:00:00 0 7352 23.67 22.75 25.84 48.72 12 11.6
2019-08-16 20:00:00 0 7274 21.61 20.52 22.87 60.36 13.3 12.1
2019-08-16 21:00:00 0 7166 19.64 19.01 20.31 74.83 14.9 13.9
2019-08-16 22:00:00 0 7050 18.34 17.96 18.9 81.77 15 14.2
2019-08-16 23:00:00 0 6992 18.9 18.3 19.25 77.26 14.6 13.9
2019-08-17 00:00:00 0 7000 19.29 19.23 19.36 70.43 13.6 13.5
2019-08-17 01:00:00 0 7000 19.13 19.05 19.28 72.37 13.9 13.6
2019-08-17 02:00:00 0 7010 18.8 18.38 19.05 77.96 14.7 14.2
2019-08-17 03:00:00 0 6992 18.28 18.03 18.46 90.35 16.5 15.6
2019-08-17 04:00:00 0 6992 17.84 17.77 17.97 99.79 17.7 17.6
2019-08-17 05:00:00 0 6972 17.94 17.8 18.03 96.4 17.2 16.9
2019-08-17 06:00:00 0 6972 17.6 17.48 17.74 97.78 17.1 16.9
2019-08-17 07:00:00 0 6972 17.5 17.43 17.6 97.72 17 16.9
2019-08-17 08:00:00 0 7030 18.29 17.7 18.99 90.04 16.4 15.6
2019-08-17 09:00:00 0 7196 19.96 19.04 20.87 67.88 13.6 12.5
2019-08-17 10:00:00 0 7392 22.2 20.97 23.62 50.56 11.2 10.5
2019-08-17 11:00:00 0 7392 24.59 22.96 25.54 39.79 9.7 9.3
2019-08-17 12:00:00 0 7382 25.98 24.29 27.23 34.89 9 8.5
2019-08-17 13:00:00 0 7382 26.43 25.45 28.06 33.04 8.5 8.2
2019-08-17 14:00:00 0 7382 26.19 25.27 27.49 33.1 8.4 8
2019-08-17 15:00:00 0 7382 26.02 24.96 27.8 35.91 9.5 8.7
2019-08-17 16:00:00 0 7382 27.78 27.04 28.23 32.22 9.4 8.6
2019-08-17 17:00:00 0 7392 25.92 25.57 26.93 35 9 8.7
2019-08-17 18:00:00 0 7382 26.3 25.63 27.12 35.57 9.6 9
2019-08-17 19:00:00 0 7362 26.04 25.16 26.69 37.03 10 9.4